sensor_id;sensor_type;location;lat;lon;timestamp;pressure;altitude;pressure_sealevel;temperature;humidity
16255;BME280;8235;52.198;9.904;2023-05-03T00:01:09;102092.56;;;5.33;73.40
16255;BME280;8235;52.198;9.904;2023-05-03T00:03:43;102091.75;;;5.29;73.23
16255;BME280;8235;52.198;9.904;2023-05-03T00:06:19;102097.97;;;5.25;73.55
16255;BME280;8235;52.198;9.904;2023-05-03T00:08:58;102092.78;;;5.20;73.52
16255;BME280;8235;52.198;9.904;2023-05-03T00:11:30;102090.25;;;5.14;73.40
16255;BME280;8235;52.198;9.904;2023-05-03T00:14:00;102096.50;;;5.09;73.72
16255;BME280;8235;52.198;9.904;2023-05-03T00:16:28;102093.91;;;5.06;74.37
16255;BME280;8235;52.198;9.904;2023-05-03T00:18:57;102085.13;;;5.05;74.09
16255;BME280;8235;52.198;9.904;2023-05-03T00:21:29;102084.31;;;5.02;75.02
16255;BME280;8235;52.198;9.904;2023-05-03T00:23:58;102093.25;;;4.95;74.34
16255;BME280;8235;52.198;9.904;2023-05-03T00:26:28;102094.19;;;4.91;75.48
16255;BME280;8235;52.198;9.904;2023-05-03T00:28:57;102101.25;;;4.88;75.66
16255;BME280;8235;52.198;9.904;2023-05-03T00:31:29;102089.84;;;4.86;75.70
16255;BME280;8235;52.198;9.904;2023-05-03T00:34:00;102091.66;;;4.84;75.94
16255;BME280;8235;52.198;9.904;2023-05-03T00:36:27;102097.88;;;4.82;75.83
16255;BME280;8235;52.198;9.904;2023-05-03T00:38:57;102090.84;;;4.81;76.11
16255;BME280;8235;52.198;9.904;2023-05-03T00:41:27;102087.38;;;4.79;76.34
16255;BME280;8235;52.198;9.904;2023-05-03T00:44:00;102096.25;;;4.72;75.39
16255;BME280;8235;52.198;9.904;2023-05-03T00:46:33;102094.69;;;4.62;75.31
16255;BME280;8235;52.198;9.904;2023-05-03T00:49:01;102094.75;;;4.57;76.30
16255;BME280;8235;52.198;9.904;2023-05-03T00:51:31;102085.16;;;4.50;75.65
16255;BME280;8235;52.198;9.904;2023-05-03T00:53:59;102087.00;;;4.46;75.78
16255;BME280;8235;52.198;9.904;2023-05-03T00:56:41;102088.84;;;4.40;75.96
16255;BME280;8235;52.198;9.904;2023-05-03T00:59:11;102093.34;;;4.33;76.14
16255;BME280;8235;52.198;9.904;2023-05-03T01:01:47;102090.78;;;4.29;76.69
16255;BME280;8235;52.198;9.904;2023-05-03T01:04:23;102084.66;;;4.27;76.85
16255;BME280;8235;52.198;9.904;2023-05-03T01:07:00;102092.59;;;4.25;77.32
16255;BME280;8235;52.198;9.904;2023-05-03T01:09:42;102086.50;;;4.22;77.65
16255;BME280;8235;52.198;9.904;2023-05-03T01:12:23;102080.38;;;4.18;77.50
16255;BME280;8235;52.198;9.904;2023-05-03T01:15:04;102087.44;;;4.14;78.40
16255;BME280;8235;52.198;9.904;2023-05-03T01:17:45;102086.59;;;4.12;77.64
16255;BME280;8235;52.198;9.904;2023-05-03T01:20:28;102082.25;;;4.11;78.02
16255;BME280;8235;52.198;9.904;2023-05-03T01:23:04;102088.44;;;4.09;78.55
16255;BME280;8235;52.198;9.904;2023-05-03T01:25:36;102076.13;;;4.09;78.55
16255;BME280;8235;52.198;9.904;2023-05-03T01:28:08;102079.66;;;4.08;78.29
16255;BME280;8235;52.198;9.904;2023-05-03T01:30:38;102085.81;;;4.07;79.28
16255;BME280;8235;52.198;9.904;2023-05-03T01:33:14;102086.72;;;4.06;79.40
16255;BME280;8235;52.198;9.904;2023-05-03T01:35:51;102091.09;;;4.06;78.89
16255;BME280;8235;52.198;9.904;2023-05-03T01:38:26;102091.13;;;4.04;79.17
16255;BME280;8235;52.198;9.904;2023-05-03T01:40:59;102089.38;;;4.03;78.78
16255;BME280;8235;52.198;9.904;2023-05-03T01:43:30;102092.06;;;3.99;79.46
16255;BME280;8235;52.198;9.904;2023-05-03T01:45:58;102088.66;;;3.92;78.88
16255;BME280;8235;52.198;9.904;2023-05-03T01:48:28;102095.72;;;3.89;79.36
16255;BME280;8235;52.198;9.904;2023-05-03T01:51:01;102088.75;;;3.84;79.83
16255;BME280;8235;52.198;9.904;2023-05-03T01:53:32;102087.03;;;3.80;80.02
16255;BME280;8235;52.198;9.904;2023-05-03T01:56:01;102093.28;;;3.75;79.80
16255;BME280;8235;52.198;9.904;2023-05-03T01:58:29;102092.47;;;3.68;79.91
16255;BME280;8235;52.198;9.904;2023-05-03T02:00:58;102091.63;;;3.65;80.33
16255;BME280;8235;52.198;9.904;2023-05-03T02:03:26;102101.31;;;3.61;80.54
16255;BME280;8235;52.198;9.904;2023-05-03T02:05:53;102093.47;;;3.58;80.74
16255;BME280;8235;52.198;9.904;2023-05-03T02:08:22;102097.00;;;3.56;80.45
16255;BME280;8235;52.198;9.904;2023-05-03T02:10:49;102101.41;;;3.55;80.18
16255;BME280;8235;52.198;9.904;2023-05-03T02:13:18;102102.31;;;3.53;80.20
16255;BME280;8235;52.198;9.904;2023-05-03T02:15:46;102105.84;;;3.48;79.97
16255;BME280;8235;52.198;9.904;2023-05-03T02:18:13;102100.63;;;3.45;80.37
16255;BME280;8235;52.198;9.904;2023-05-03T02:20:46;102108.53;;;3.42;80.48
16255;BME280;8235;52.198;9.904;2023-05-03T02:23:34;102109.50;;;3.37;80.30
16255;BME280;8235;52.198;9.904;2023-05-03T02:26:02;102108.66;;;3.32;79.89
16255;BME280;8235;52.198;9.904;2023-05-03T02:28:34;102106.09;;;3.24;79.17
16255;BME280;8235;52.198;9.904;2023-05-03T02:31:04;102110.59;;;3.16;80.24
16255;BME280;8235;52.198;9.904;2023-05-03T02:33:41;102110.63;;;3.11;80.09
16255;BME280;8235;52.198;9.904;2023-05-03T02:36:11;102111.53;;;3.09;80.72
16255;BME280;8235;52.198;9.904;2023-05-03T02:38:39;102116.81;;;3.06;79.99
16255;BME280;8235;52.198;9.904;2023-05-03T02:41:08;102115.13;;;3.00;79.71
16255;BME280;8235;52.198;9.904;2023-05-03T02:43:44;102124.81;;;2.97;79.90
16255;BME280;8235;52.198;9.904;2023-05-03T02:46:12;102123.94;;;2.92;80.23
16255;BME280;8235;52.198;9.904;2023-05-03T02:48:55;102130.09;;;2.91;80.19
16255;BME280;8235;52.198;9.904;2023-05-03T02:51:25;102130.09;;;2.89;80.98
16255;BME280;8235;52.198;9.904;2023-05-03T02:54:00;102131.88;;;2.89;80.90
16255;BME280;8235;52.198;9.904;2023-05-03T02:56:32;102123.16;;;2.85;81.22
16255;BME280;8235;52.198;9.904;2023-05-03T02:59:01;102131.06;;;2.84;81.58
16255;BME280;8235;52.198;9.904;2023-05-03T03:01:32;102128.44;;;2.81;81.53
16255;BME280;8235;52.198;9.904;2023-05-03T03:04:02;102132.84;;;2.78;nan
16255;BME280;8235;52.198;9.904;2023-05-03T03:06:32;102134.59;;;2.76;81.38
16255;BME280;8235;52.198;9.904;2023-05-03T03:09:02;102130.22;;;2.74;81.90
16255;BME280;8235;52.198;9.904;2023-05-03T03:11:33;102125.88;;;2.71;82.20
16255;BME280;8235;52.198;9.904;2023-05-03T03:14:19;102129.44;;;2.66;81.69
16255;BME280;8235;52.198;9.904;2023-05-03T03:16:46;102132.97;;;2.63;81.82
16255;BME280;8235;52.198;9.904;2023-05-03T03:19:13;102141.75;;;2.58;81.61
16255;BME280;8235;52.198;9.904;2023-05-03T03:21:44;102143.53;;;2.51;81.65
16255;BME280;8235;52.198;9.904;2023-05-03T03:24:14;102135.72;;;2.45;82.38
16255;BME280;8235;52.198;9.904;2023-05-03T03:26:54;102134.84;;;2.41;81.88
16255;BME280;8235;52.198;9.904;2023-05-03T03:29:27;102137.50;;;2.38;82.26
16255;BME280;8235;52.198;9.904;2023-05-03T03:31:55;102141.88;;;2.35;82.77
16255;BME280;8235;52.198;9.904;2023-05-03T03:34:25;102139.31;;;2.30;83.01
16255;BME280;8235;52.198;9.904;2023-05-03T03:36:53;102142.81;;;2.28;82.69
16255;BME280;8235;52.198;9.904;2023-05-03T03:39:25;102138.44;;;2.25;83.45
16255;BME280;8235;52.198;9.904;2023-05-03T03:41:57;102137.59;;;2.23;83.27
16255;BME280;8235;52.198;9.904;2023-05-03T03:44:26;102138.47;;;2.22;83.57
16255;BME280;8235;52.198;9.904;2023-05-03T03:46:54;102133.19;;;2.24;83.83
16255;BME280;8235;52.198;9.904;2023-05-03T03:49:24;102137.59;;;2.23;84.00
16255;BME280;8235;52.198;9.904;2023-05-03T03:51:52;102143.72;;;2.21;84.17
16255;BME280;8235;52.198;9.904;2023-05-03T03:54:19;102147.25;;;2.17;83.98
16255;BME280;8235;52.198;9.904;2023-05-03T03:56:46;102135.88;;;2.15;84.77
16255;BME280;8235;52.198;9.904;2023-05-03T03:59:18;102146.41;;;2.10;84.20
16255;BME280;8235;52.198;9.904;2023-05-03T04:01:48;102144.69;;;2.06;84.32
16255;BME280;8235;52.198;9.904;2023-05-03T04:04:24;102140.31;;;2.00;84.54
16255;BME280;8235;52.198;9.904;2023-05-03T04:06:52;102137.69;;;1.97;84.90
16255;BME280;8235;52.198;9.904;2023-05-03T04:09:21;102140.31;;;1.99;85.00
16255;BME280;8235;52.198;9.904;2023-05-03T04:11:54;102135.94;;;1.99;84.65
16255;BME280;8235;52.198;9.904;2023-05-03T04:14:22;102132.44;;;2.00;85.67
16255;BME280;8235;52.198;9.904;2023-05-03T04:16:54;102136.81;;;2.01;85.65
16255;BME280;8235;52.198;9.904;2023-05-03T04:19:23;102137.69;;;2.03;85.48
16255;BME280;8235;52.198;9.904;2023-05-03T04:21:51;102135.91;;;2.05;85.73
16255;BME280;8235;52.198;9.904;2023-05-03T04:24:28;102133.28;;;2.10;86.12
16255;BME280;8235;52.198;9.904;2023-05-03T04:26:58;102134.16;;;2.11;86.52
16255;BME280;8235;52.198;9.904;2023-05-03T04:29:31;102131.53;;;2.09;85.87
16255;BME280;8235;52.198;9.904;2023-05-03T04:32:00;102135.91;;;2.07;86.15
16255;BME280;8235;52.198;9.904;2023-05-03T04:34:29;102142.94;;;2.03;85.75
16255;BME280;8235;52.198;9.904;2023-05-03T04:37:00;102142.94;;;2.02;86.17
16255;BME280;8235;52.198;9.904;2023-05-03T04:39:29;102148.19;;;2.03;86.69
16255;BME280;8235;52.198;9.904;2023-05-03T04:41:57;102149.94;;;2.06;87.11
16255;BME280;8235;52.198;9.904;2023-05-03T04:44:24;102149.91;;;2.11;87.54
16255;BME280;8235;52.198;9.904;2023-05-03T04:46:52;102151.66;;;2.15;88.36
16255;BME280;8235;52.198;9.904;2023-05-03T04:49:20;102152.50;;;2.20;88.45
16255;BME280;8235;52.198;9.904;2023-05-03T04:51:48;102155.09;;;2.26;89.37
16255;BME280;8235;52.198;9.904;2023-05-03T04:54:15;102154.22;;;2.30;88.86
16255;BME280;8235;52.198;9.904;2023-05-03T04:56:42;102154.16;;;2.36;89.00
16255;BME280;8235;52.198;9.904;2023-05-03T04:59:09;102155.91;;;2.38;89.49
16255;BME280;8235;52.198;9.904;2023-05-03T05:01:37;102153.25;;;2.40;89.30
16255;BME280;8235;52.198;9.904;2023-05-03T05:04:04;102155.88;;;2.40;89.63
16255;BME280;8235;52.198;9.904;2023-05-03T05:06:32;102158.50;;;2.44;90.07
16255;BME280;8235;52.198;9.904;2023-05-03T05:08:59;102162.00;;;2.47;90.71
16255;BME280;8235;52.198;9.904;2023-05-03T05:11:26;102154.94;;;2.52;90.96
16255;BME280;8235;52.198;9.904;2023-05-03T05:13:53;102154.03;;;2.57;91.40
16255;BME280;8235;52.198;9.904;2023-05-03T05:16:20;102155.75;;;2.64;91.45
16255;BME280;8235;52.198;9.904;2023-05-03T05:18:47;102153.94;;;2.69;91.68
16255;BME280;8235;52.198;9.904;2023-05-03T05:21:14;102159.16;;;2.75;91.48
16255;BME280;8235;52.198;9.904;2023-05-03T05:23:43;102160.00;;;2.84;92.24
16255;BME280;8235;52.198;9.904;2023-05-03T05:26:10;102159.91;;;2.93;92.18
16255;BME280;8235;52.198;9.904;2023-05-03T05:28:38;102173.00;;;3.02;93.05
16255;BME280;8235;52.198;9.904;2023-05-03T05:31:06;102172.91;;;3.14;93.77
16255;BME280;8235;52.198;9.904;2023-05-03T05:33:33;102171.91;;;3.26;94.58
16255;BME280;8235;52.198;9.904;2023-05-03T05:36:02;102184.06;;;3.42;94.95
16255;BME280;8235;52.198;9.904;2023-05-03T05:38:30;102182.19;;;3.56;96.31
16255;BME280;8235;52.198;9.904;2023-05-03T05:41:04;102180.25;;;3.73;96.75
16255;BME280;8235;52.198;9.904;2023-05-03T05:43:34;102180.06;;;3.90;96.77
16255;BME280;8235;52.198;9.904;2023-05-03T05:46:01;102186.88;;;4.08;97.20
16255;BME280;8235;52.198;9.904;2023-05-03T05:48:28;102191.06;;;4.23;97.36
16255;BME280;8235;52.198;9.904;2023-05-03T05:50:56;102189.97;;;4.40;97.87
16255;BME280;8235;52.198;9.904;2023-05-03T05:53:23;102195.88;;;4.58;97.43
16255;BME280;8235;52.198;9.904;2023-05-03T05:55:50;102189.47;;;4.75;97.38
16255;BME280;8235;52.198;9.904;2023-05-03T05:58:19;102191.88;;;4.91;97.04
16255;BME280;8235;52.198;9.904;2023-05-03T06:00:46;102188.97;;;5.07;96.44
16255;BME280;8235;52.198;9.904;2023-05-03T06:03:16;102202.78;;;5.23;95.47
16255;BME280;8235;52.198;9.904;2023-05-03T06:05:43;102200.75;;;5.39;94.30
16255;BME280;8235;52.198;9.904;2023-05-03T06:08:10;102204.94;;;5.53;92.75
16255;BME280;8235;52.198;9.904;2023-05-03T06:10:40;102201.09;;;5.70;91.69
16255;BME280;8235;52.198;9.904;2023-05-03T06:13:08;102192.88;;;5.85;90.57
16255;BME280;8235;52.198;9.904;2023-05-03T06:15:39;102193.47;;;6.01;89.59
16255;BME280;8235;52.198;9.904;2023-05-03T06:18:07;102193.16;;;6.16;87.75
16255;BME280;8235;52.198;9.904;2023-05-03T06:20:35;102199.91;;;6.31;86.05
16255;BME280;8235;52.198;9.904;2023-05-03T06:23:02;102196.06;;;6.45;85.14
16255;BME280;8235;52.198;9.904;2023-05-03T06:25:29;102201.09;;;6.57;83.14
16255;BME280;8235;52.198;9.904;2023-05-03T06:27:57;102199.06;;;6.69;81.31
16255;BME280;8235;52.198;9.904;2023-05-03T06:30:27;102195.38;;;6.77;80.50
16255;BME280;8235;52.198;9.904;2023-05-03T06:32:56;102207.41;;;6.90;79.46
16255;BME280;8235;52.198;9.904;2023-05-03T06:35:23;102210.59;;;7.05;78.88
16255;BME280;8235;52.198;9.904;2023-05-03T06:37:51;102214.63;;;7.21;78.56
16255;BME280;8235;52.198;9.904;2023-05-03T06:40:18;102220.38;;;7.38;77.59
16255;BME280;8235;52.198;9.904;2023-05-03T06:42:50;102209.38;;;7.53;76.59
16255;BME280;8235;52.198;9.904;2023-05-03T06:45:17;102217.81;;;7.69;75.82
16255;BME280;8235;52.198;9.904;2023-05-03T06:47:43;102217.47;;;7.81;75.05
16255;BME280;8235;52.198;9.904;2023-05-03T06:50:11;102219.72;;;7.96;73.76
16255;BME280;8235;52.198;9.904;2023-05-03T06:52:38;102226.41;;;8.10;72.63
16255;BME280;8235;52.198;9.904;2023-05-03T06:55:05;102216.34;;;8.22;71.44
16255;BME280;8235;52.198;9.904;2023-05-03T06:57:32;102212.53;;;8.32;71.85
16255;BME280;8235;52.198;9.904;2023-05-03T06:59:58;102220.06;;;8.46;71.11
16255;BME280;8235;52.198;9.904;2023-05-03T07:02:25;102221.41;;;8.61;69.75
16255;BME280;8235;52.198;9.904;2023-05-03T07:04:51;102221.09;;;8.72;69.32
16255;BME280;8235;52.198;9.904;2023-05-03T07:07:19;102212.72;;;8.84;67.87
16255;BME280;8235;52.198;9.904;2023-05-03T07:09:45;102216.81;;;8.95;67.67
16255;BME280;8235;52.198;9.904;2023-05-03T07:12:12;102212.06;;;9.05;66.05
16255;BME280;8235;52.198;9.904;2023-05-03T07:14:38;102210.09;;;9.12;65.05
16255;BME280;8235;52.198;9.904;2023-05-03T07:17:05;102213.25;;;9.23;65.08
16255;BME280;8235;52.198;9.904;2023-05-03T07:19:31;102213.94;;;9.29;64.40
16255;BME280;8235;52.198;9.904;2023-05-03T07:21:58;102214.38;;;9.42;64.18
16255;BME280;8235;52.198;9.904;2023-05-03T07:24:28;102210.41;;;9.54;63.49
16255;BME280;8235;52.198;9.904;2023-05-03T07:26:55;102223.47;;;9.61;61.86
16255;BME280;8235;52.198;9.904;2023-05-03T07:29:22;102212.59;;;9.67;60.21
16255;BME280;8235;52.198;9.904;2023-05-03T07:31:48;102200.94;;;9.71;59.55
16255;BME280;8235;52.198;9.904;2023-05-03T07:34:15;102197.91;;;9.82;59.94
16255;BME280;8235;52.198;9.904;2023-05-03T07:36:41;102196.84;;;9.86;59.09
16255;BME280;8235;52.198;9.904;2023-05-03T07:39:08;102207.63;;;9.83;57.77
16255;BME280;8235;52.198;9.904;2023-05-03T07:41:36;102205.03;;;9.82;57.95
16255;BME280;8235;52.198;9.904;2023-05-03T07:44:03;102202.13;;;9.88;57.74
16255;BME280;8235;52.198;9.904;2023-05-03T07:46:29;102192.19;;;9.93;56.55
16255;BME280;8235;52.198;9.904;2023-05-03T07:48:59;102203.56;;;9.98;55.91
16255;BME280;8235;52.198;9.904;2023-05-03T07:51:26;102188.34;;;10.01;55.79
16255;BME280;8235;52.198;9.904;2023-05-03T07:53:53;102190.97;;;10.03;55.02
16255;BME280;8235;52.198;9.904;2023-05-03T07:56:19;102190.97;;;10.03;54.58
16255;BME280;8235;52.198;9.904;2023-05-03T07:58:47;102196.28;;;10.03;54.81
16255;BME280;8235;52.198;9.904;2023-05-03T08:01:14;102188.22;;;10.04;55.02
16255;BME280;8235;52.198;9.904;2023-05-03T08:03:41;102197.78;;;10.10;54.64
16255;BME280;8235;52.198;9.904;2023-05-03T08:06:07;102190.50;;;10.15;53.68
16255;BME280;8235;52.198;9.904;2023-05-03T08:08:34;102192.00;;;10.22;54.58
16255;BME280;8235;52.198;9.904;2023-05-03T08:11:00;102188.91;;;10.34;53.74
16255;BME280;8235;52.198;9.904;2023-05-03T08:13:27;102184.09;;;10.44;53.33
16255;BME280;8235;52.198;9.904;2023-05-03T08:15:55;102184.63;;;10.54;52.97
16255;BME280;8235;52.198;9.904;2023-05-03T08:18:21;102188.41;;;10.70;53.16
16255;BME280;8235;52.198;9.904;2023-05-03T08:20:48;102178.13;;;10.83;51.99
16255;BME280;8235;52.198;9.904;2023-05-03T08:23:15;102184.56;;;10.99;52.79
16255;BME280;8235;52.198;9.904;2023-05-03T08:25:42;102186.31;;;11.22;51.89
16255;BME280;8235;52.198;9.904;2023-05-03T08:28:10;102193.72;;;11.35;50.55
16255;BME280;8235;52.198;9.904;2023-05-03T08:30:37;102194.81;;;11.52;50.88
16255;BME280;8235;52.198;9.904;2023-05-03T08:33:04;102188.81;;;11.67;50.12
16255;BME280;8235;52.198;9.904;2023-05-03T08:35:33;102188.47;;;11.74;48.77
16255;BME280;8235;52.198;9.904;2023-05-03T08:38:00;102180.25;;;11.80;48.73
16255;BME280;8235;52.198;9.904;2023-05-03T08:40:27;102187.63;;;11.94;49.24
16255;BME280;8235;52.198;9.904;2023-05-03T08:42:54;102186.72;;;11.95;47.33
16255;BME280;8235;52.198;9.904;2023-05-03T08:45:21;102185.97;;;11.92;46.74
16255;BME280;8235;52.198;9.904;2023-05-03T08:47:52;102188.91;;;11.86;46.85
16255;BME280;8235;52.198;9.904;2023-05-03T08:50:20;102182.63;;;11.87;47.28
16255;BME280;8235;52.198;9.904;2023-05-03T08:52:47;102181.31;;;11.97;47.57
16255;BME280;8235;52.198;9.904;2023-05-03T08:55:14;102186.06;;;12.09;47.78
16255;BME280;8235;52.198;9.904;2023-05-03T08:57:41;102184.44;;;12.25;47.03
16255;BME280;8235;52.198;9.904;2023-05-03T09:00:08;102178.38;;;12.40;46.70
16255;BME280;8235;52.198;9.904;2023-05-03T09:02:37;102185.66;;;12.56;46.81
16255;BME280;8235;52.198;9.904;2023-05-03T09:05:05;102182.31;;;12.71;45.67
16255;BME280;8235;52.198;9.904;2023-05-03T09:08:01;102177.16;;;12.85;45.22
16255;BME280;8235;52.198;9.904;2023-05-03T09:10:29;102181.09;;;12.95;44.74
16255;BME280;8235;52.198;9.904;2023-05-03T09:12:57;102181.44;;;13.06;44.79
16255;BME280;8235;52.198;9.904;2023-05-03T09:15:25;102180.00;;;13.18;44.67
16255;BME280;8235;52.198;9.904;2023-05-03T09:18:10;102173.00;;;13.33;45.23
16255;BME280;8235;52.198;9.904;2023-05-03T09:20:38;102174.91;;;13.48;44.39
16255;BME280;8235;52.198;9.904;2023-05-03T09:23:07;102177.97;;;13.58;43.79
16255;BME280;8235;52.198;9.904;2023-05-03T09:25:44;102170.47;;;13.64;43.76
16255;BME280;8235;52.198;9.904;2023-05-03T09:28:11;102166.47;;;13.73;42.66
16255;BME280;8235;52.198;9.904;2023-05-03T09:30:38;102165.88;;;13.83;42.79
16255;BME280;8235;52.198;9.904;2023-05-03T09:33:05;102156.59;;;13.90;42.65
16255;BME280;8235;52.198;9.904;2023-05-03T09:35:32;102161.53;;;13.98;42.82
16255;BME280;8235;52.198;9.904;2023-05-03T09:37:58;102166.31;;;14.09;42.22
16255;BME280;8235;52.198;9.904;2023-05-03T09:40:27;102164.34;;;14.12;42.21
16255;BME280;8235;52.198;9.904;2023-05-03T09:43:07;102166.09;;;14.13;41.87
16255;BME280;8235;52.198;9.904;2023-05-03T09:45:34;102167.47;;;14.20;41.73
16255;BME280;8235;52.198;9.904;2023-05-03T09:48:01;102166.97;;;14.30;41.66
16255;BME280;8235;52.198;9.904;2023-05-03T09:50:28;102168.88;;;14.28;40.68
16255;BME280;8235;52.198;9.904;2023-05-03T09:52:58;102162.97;;;14.21;40.92
16255;BME280;8235;52.198;9.904;2023-05-03T09:55:30;102162.03;;;14.22;41.97
16255;BME280;8235;52.198;9.904;2023-05-03T09:57:57;102161.25;;;14.36;42.54
16255;BME280;8235;52.198;9.904;2023-05-03T10:00:24;102160.63;;;14.48;41.78
16255;BME280;8235;52.198;9.904;2023-05-03T10:02:53;102155.94;;;14.51;40.64
16255;BME280;8235;52.198;9.904;2023-05-03T10:05:23;102155.28;;;14.48;40.49
16255;BME280;8235;52.198;9.904;2023-05-03T10:07:52;102145.97;;;14.38;40.27
16255;BME280;8235;52.198;9.904;2023-05-03T10:10:21;102142.78;;;14.31;40.44
16255;BME280;8235;52.198;9.904;2023-05-03T10:12:49;102145.09;;;14.37;41.15
16255;BME280;8235;52.198;9.904;2023-05-03T10:15:19;102146.28;;;14.49;40.95
16255;BME280;8235;52.198;9.904;2023-05-03T10:17:48;102137.78;;;14.56;40.82
16255;BME280;8235;52.198;9.904;2023-05-03T10:20:23;102146.78;;;14.55;41.17
16255;BME280;8235;52.198;9.904;2023-05-03T10:23:07;102141.41;;;14.55;41.62
16255;BME280;8235;52.198;9.904;2023-05-03T10:25:36;102145.50;;;14.63;41.82
16255;BME280;8235;52.198;9.904;2023-05-03T10:28:05;102144.97;;;14.72;41.66
16255;BME280;8235;52.198;9.904;2023-05-03T10:30:33;102142.88;;;14.77;41.36
16255;BME280;8235;52.198;9.904;2023-05-03T10:33:27;102144.63;;;14.78;40.88
16255;BME280;8235;52.198;9.904;2023-05-03T10:35:55;102144.53;;;14.79;40.54
16255;BME280;8235;52.198;9.904;2023-05-03T10:38:22;102139.78;;;14.84;40.60
16255;BME280;8235;52.198;9.904;2023-05-03T10:40:49;102135.00;;;14.89;40.87
16255;BME280;8235;52.198;9.904;2023-05-03T10:43:41;102142.78;;;14.94;40.71
16255;BME280;8235;52.198;9.904;2023-05-03T10:46:28;102133.78;;;14.95;40.92
16255;BME280;8235;52.198;9.904;2023-05-03T10:49:15;102124.78;;;14.96;40.13
16255;BME280;8235;52.198;9.904;2023-05-03T10:51:42;102129.28;;;14.96;40.27
16255;BME280;8235;52.198;9.904;2023-05-03T10:54:09;102137.94;;;15.01;40.39
16255;BME280;8235;52.198;9.904;2023-05-03T10:56:46;102133.91;;;15.08;40.61
16255;BME280;8235;52.198;9.904;2023-05-03T10:59:14;102124.84;;;15.10;40.44
16255;BME280;8235;52.198;9.904;2023-05-03T11:01:43;102119.13;;;15.16;40.85
16255;BME280;8235;52.198;9.904;2023-05-03T11:04:12;102122.47;;;15.20;40.70
16255;BME280;8235;52.198;9.904;2023-05-03T11:06:41;102124.31;;;15.19;40.16
16255;BME280;8235;52.198;9.904;2023-05-03T11:09:10;102120.66;;;15.20;40.41
16255;BME280;8235;52.198;9.904;2023-05-03T11:11:39;102118.47;;;15.27;40.42
16255;BME280;8235;52.198;9.904;2023-05-03T11:14:07;102116.81;;;15.24;39.15
16255;BME280;8235;52.198;9.904;2023-05-03T11:16:35;102108.28;;;15.18;38.57
16255;BME280;8235;52.198;9.904;2023-05-03T11:19:05;102097.66;;;15.16;39.03
16255;BME280;8235;52.198;9.904;2023-05-03T11:21:31;102098.41;;;15.18;38.87
16255;BME280;8235;52.198;9.904;2023-05-03T11:23:58;102096.13;;;15.26;39.65
16255;BME280;8235;52.198;9.904;2023-05-03T11:26:24;102082.53;;;15.29;39.29
16255;BME280;8235;52.198;9.904;2023-05-03T11:28:52;102090.03;;;15.39;39.03
16255;BME280;8235;52.198;9.904;2023-05-03T11:31:20;102095.41;;;15.39;38.89
16255;BME280;8235;52.198;9.904;2023-05-03T11:33:48;102099.59;;;15.43;39.43
16255;BME280;8235;52.198;9.904;2023-05-03T11:36:15;102091.56;;;15.43;39.33
16255;BME280;8235;52.198;9.904;2023-05-03T11:38:42;102087.03;;;15.43;39.25
16255;BME280;8235;52.198;9.904;2023-05-03T11:41:11;102080.44;;;15.49;39.37
16255;BME280;8235;52.198;9.904;2023-05-03T11:43:40;102083.38;;;15.60;39.35
16255;BME280;8235;52.198;9.904;2023-05-03T11:46:06;102078.22;;;15.71;39.53
16255;BME280;8235;52.198;9.904;2023-05-03T11:48:33;102078.03;;;15.74;39.52
16255;BME280;8235;52.198;9.904;2023-05-03T11:51:06;102075.34;;;15.74;39.61
16255;BME280;8235;52.198;9.904;2023-05-03T11:53:35;102081.09;;;15.68;40.42
16255;BME280;8235;52.198;9.904;2023-05-03T11:58:32;102073.03;;;15.68;40.01
16255;BME280;8235;52.198;9.904;2023-05-03T12:00:58;102080.13;;;15.69;40.24
16255;BME280;8235;52.198;9.904;2023-05-03T12:03:26;102084.25;;;15.75;40.58
16255;BME280;8235;52.198;9.904;2023-05-03T12:05:54;102074.66;;;15.71;39.96
16255;BME280;8235;52.198;9.904;2023-05-03T12:08:27;102076.47;;;15.70;40.47
16255;BME280;8235;52.198;9.904;2023-05-03T12:10:54;102071.00;;;15.72;39.94
16255;BME280;8235;52.198;9.904;2023-05-03T12:13:27;102073.88;;;15.69;40.33
16255;BME280;8235;52.198;9.904;2023-05-03T12:15:56;102072.44;;;15.63;40.07
16255;BME280;8235;52.198;9.904;2023-05-03T12:18:22;102069.06;;;15.59;40.07
16255;BME280;8235;52.198;9.904;2023-05-03T12:20:54;102068.69;;;15.66;40.23
16255;BME280;8235;52.198;9.904;2023-05-03T12:23:23;102063.34;;;15.66;39.53
16255;BME280;8235;52.198;9.904;2023-05-03T12:25:49;102061.22;;;15.71;39.25
16255;BME280;8235;52.198;9.904;2023-05-03T12:28:17;102048.38;;;15.76;39.06
16255;BME280;8235;52.198;9.904;2023-05-03T12:30:43;102050.75;;;15.80;39.25
16255;BME280;8235;52.198;9.904;2023-05-03T12:33:10;102051.34;;;15.85;38.61
16255;BME280;8235;52.198;9.904;2023-05-03T12:35:38;102037.81;;;15.87;38.67
16255;BME280;8235;52.198;9.904;2023-05-03T12:38:05;102035.91;;;15.89;39.04
16255;BME280;8235;52.198;9.904;2023-05-03T12:40:33;102038.69;;;15.87;38.37
16255;BME280;8235;52.198;9.904;2023-05-03T12:43:00;102033.88;;;15.78;38.53
16255;BME280;8235;52.198;9.904;2023-05-03T12:45:26;102031.84;;;15.82;38.82
16255;BME280;8235;52.198;9.904;2023-05-03T12:47:54;102035.91;;;15.89;37.79
16255;BME280;8235;52.198;9.904;2023-05-03T12:50:20;102015.34;;;15.88;37.68
16255;BME280;8235;52.198;9.904;2023-05-03T12:52:47;102020.44;;;15.92;38.60
16255;BME280;8235;52.198;9.904;2023-05-03T12:55:16;102021.38;;;16.06;39.07
16255;BME280;8235;52.198;9.904;2023-05-03T12:57:44;102016.06;;;16.18;39.01
16255;BME280;8235;52.198;9.904;2023-05-03T13:00:12;102015.00;;;16.21;38.72
16255;BME280;8235;52.198;9.904;2023-05-03T13:02:38;102018.56;;;16.21;39.22
16255;BME280;8235;52.198;9.904;2023-05-03T13:05:05;102019.41;;;16.22;38.79
16255;BME280;8235;52.198;9.904;2023-05-03T13:07:33;102022.97;;;16.22;39.10
16255;BME280;8235;52.198;9.904;2023-05-03T13:10:00;102013.06;;;16.23;38.36
16255;BME280;8235;52.198;9.904;2023-05-03T13:12:26;102011.16;;;16.25;38.53
16255;BME280;8235;52.198;9.904;2023-05-03T13:14:56;102011.72;;;16.30;38.24
16255;BME280;8235;52.198;9.904;2023-05-03T13:17:22;102006.69;;;16.38;39.15
16255;BME280;8235;52.198;9.904;2023-05-03T13:19:49;102004.00;;;16.38;38.88
16255;BME280;8235;52.198;9.904;2023-05-03T13:22:17;102002.47;;;16.34;38.98